Time;durP1;ratioP1;P1;durP2;ratioP2;P2;SDS_P1;SDS_P2;PMS_P1;PMS_P2;Temp;Humidity;BMP_temperature;BMP_pressure;BME280_temperature;BME280_humidity;BME280_pressure;Samples;Min_cycle;Max_cycle;Signal;HPM_P1;HPM_P2
2021/03/26 00:02:21;;;;;;;49.87;34.80;;;9.50;99.90;;;;;;5009186;28;20230;-60
2021/03/26 00:04:48;;;;;;;52.10;36.13;;;9.50;99.90;;;;;;5009301;28;20263;-61
2021/03/26 00:07:14;;;;;;;52.50;35.17;;;9.60;99.90;;;;;;5009218;28;20447;-61
2021/03/26 00:09:42;;;;;;;54.93;35.77;;;10.20;99.90;;;;;;5009402;28;20211;-62
2021/03/26 00:12:12;;;;;;;57.17;39.87;;;9.20;99.90;;;;;;5008865;28;20421;-61
2021/03/26 00:14:39;;;;;;;55.60;37.17;;;9.20;99.90;;;;;;5008681;28;20282;-61
2021/03/26 00:17:06;;;;;;;55.67;37.97;;;9.40;99.90;;;;;;5008834;28;20226;-61
2021/03/26 00:19:32;;;;;;;51.97;35.03;;;9.20;99.90;;;;;;5008861;28;20562;-61
2021/03/26 00:21:59;;;;;;;55.83;37.20;;;9.10;99.90;;;;;;5009035;28;20214;-60
2021/03/26 00:24:25;;;;;;;51.87;36.40;;;9.20;99.90;;;;;;5009084;28;20467;-60
2021/03/26 00:26:52;;;;;;;51.77;36.27;;;9.20;99.90;;;;;;5008717;28;20617;-61
2021/03/26 00:29:20;;;;;;;54.20;35.13;;;10.10;99.90;;;;;;5009214;28;20513;-61
2021/03/26 00:31:47;;;;;;;52.67;35.77;;;9.10;99.90;;;;;;5008523;28;20547;-62
2021/03/26 00:34:13;;;;;;;52.50;34.40;;;9.10;99.90;;;;;;5008469;28;20576;-61
2021/03/26 00:36:40;;;;;;;59.93;36.40;;;10.20;99.90;;;;;;5008375;28;20422;-61
2021/03/26 00:39:07;;;;;;;47.53;33.67;;;9.10;99.90;;;;;;5009487;28;20398;-61
2021/03/26 00:41:33;;;;;;;50.83;35.80;;;9.20;99.90;;;;;;5008831;28;20534;-60
2021/03/26 00:44:01;;;;;;;48.97;35.87;;;9.10;99.90;;;;;;5008898;28;20528;-61
2021/03/26 00:46:28;;;;;;;51.67;35.03;;;9.30;99.90;;;;;;5008490;28;20901;-60
2021/03/26 00:48:54;;;;;;;51.73;34.73;;;9.30;99.90;;;;;;5008667;28;20285;-61
2021/03/26 00:51:24;;;;;;;49.47;34.40;;;9.20;99.90;;;;;;4989932;28;20333;-61
2021/03/26 00:53:50;;;;;;;52.27;35.43;;;9.30;99.90;;;;;;5007738;28;20747;-61
2021/03/26 00:56:17;;;;;;;53.60;35.03;;;9.90;99.90;;;;;;4989894;28;20614;-61
2021/03/26 00:58:43;;;;;;;46.33;32.77;;;9.20;99.90;;;;;;4990099;28;21088;-61
2021/03/26 01:01:11;;;;;;;49.23;34.73;;;9.30;99.90;;;;;;5008271;28;20971;-62
2021/03/26 01:03:37;;;;;;;51.07;34.67;;;9.30;99.90;;;;;;4989246;28;20505;-61
2021/03/26 01:06:07;;;;;;;51.10;34.70;;;9.20;99.90;;;;;;4989620;28;20292;-62
2021/03/26 01:08:36;;;;;;;53.93;35.00;;;9.30;99.90;;;;;;5008328;28;20444;-62
2021/03/26 01:11:09;;;;;;;51.47;34.80;;;10.40;99.90;;;;;;4989609;28;20515;-61
2021/03/26 01:13:36;;;;;;;44.03;31.47;;;9.20;99.90;;;;;;5008339;28;20229;-62
2021/03/26 01:16:03;;;;;;;50.93;35.63;;;9.70;99.90;;;;;;4989780;28;20923;-61
2021/03/26 01:18:34;;;;;;;52.53;36.73;;;9.10;99.90;;;;;;5008124;28;20253;-62
2021/03/26 01:21:04;;;;;;;55.93;36.53;;;9.20;99.90;;;;;;4989644;28;20936;-61
2021/03/26 01:23:31;;;;;;;51.80;34.60;;;9.20;99.90;;;;;;4989881;28;20655;-62
2021/03/26 01:25:58;;;;;;;49.50;35.13;;;9.30;99.90;;;;;;5023010;28;20639;-61
2021/03/26 01:28:44;;;;;;;46.57;34.03;;;9.20;99.90;;;;;;4989845;28;20581;-62
2021/03/26 01:31:25;;;;;;;47.57;33.37;;;9.20;99.90;;;;;;4989145;28;20328;-61
2021/03/26 01:33:54;;;;;;;49.47;35.53;;;9.20;99.90;;;;;;4986545;28;20294;-62
2021/03/26 01:36:22;;;;;;;51.33;35.47;;;9.10;99.90;;;;;;5028495;28;20448;-61
2021/03/26 01:38:48;;;;;;;46.23;32.87;;;9.00;99.90;;;;;;4989463;28;20600;-61
2021/03/26 01:41:28;;;;;;;42.67;29.17;;;9.00;99.90;;;;;;4989302;28;20955;-62
2021/03/26 01:43:54;;;;;;;46.20;32.90;;;8.90;99.90;;;;;;5007717;28;20241;-62
2021/03/26 01:46:22;;;;;;;45.57;33.07;;;9.00;99.90;;;;;;4989712;28;20266;-62
2021/03/26 01:48:56;;;;;;;52.27;34.97;;;8.90;99.90;;;;;;4989969;28;20510;-62
2021/03/26 01:51:27;;;;;;;48.37;33.83;;;8.90;99.90;;;;;;4988560;28;20967;-60
2021/03/26 01:53:54;;;;;;;54.50;36.37;;;8.90;99.90;;;;;;4989169;28;20337;-62
2021/03/26 01:56:21;;;;;;;46.67;34.53;;;8.80;99.90;;;;;;4989519;28;20336;-60
2021/03/26 01:59:08;;;;;;;53.07;36.07;;;8.70;99.90;;;;;;5007322;28;20560;-62
2021/03/26 02:01:38;;;;;;;55.03;35.97;;;9.60;99.90;;;;;;5007246;28;20417;-62
2021/03/26 02:04:07;;;;;;;48.83;35.80;;;9.40;99.90;;;;;;5008765;28;20564;-62
2021/03/26 02:06:37;;;;;;;51.30;35.20;;;8.40;99.90;;;;;;5014307;28;20937;-61
2021/03/26 02:09:07;;;;;;;55.73;37.40;;;8.30;99.90;;;;;;5014661;28;20226;-62
2021/03/26 02:11:39;;;;;;;56.03;37.13;;;8.30;99.90;;;;;;4995755;28;20237;-62
2021/03/26 02:14:09;;;;;;;60.47;39.70;;;8.30;99.90;;;;;;5014024;28;20228;-62
2021/03/26 02:16:36;;;;;;;55.93;35.63;;;8.20;99.90;;;;;;4995169;28;20300;-62
2021/03/26 02:19:27;;;;;;;55.10;35.30;;;8.10;99.90;;;;;;5013148;28;20506;-61
2021/03/26 02:21:54;;;;;;;48.77;32.77;;;7.80;99.90;;;;;;5012627;28;20480;-61
2021/03/26 02:24:23;;;;;;;55.30;34.37;;;7.90;99.90;;;;;;5014399;28;20900;-61
2021/03/26 02:26:52;;;;;;;53.57;34.73;;;7.80;99.90;;;;;;5014381;28;20329;-61
2021/03/26 02:29:23;;;;;;;54.47;33.97;;;7.70;99.90;;;;;;4996012;28;20373;-60
2021/03/26 02:32:05;;;;;;;49.10;31.60;;;7.60;99.90;;;;;;5013708;28;20396;-62
2021/03/26 02:34:33;;;;;;;47.33;31.43;;;7.60;99.90;;;;;;4995008;28;20222;-61
2021/03/26 02:37:02;;;;;;;40.13;27.33;;;7.50;99.90;;;;;;4995620;28;20242;-62
2021/03/26 02:39:38;;;;;;;51.53;33.47;;;7.30;99.90;;;;;;4995139;28;20489;-61
2021/03/26 02:42:13;;;;;;;39.63;27.83;;;7.40;99.90;;;;;;4995183;28;20546;-60
2021/03/26 02:44:54;;;;;;;38.93;27.00;;;7.10;99.90;;;;;;4995821;28;20217;-61
2021/03/26 02:47:37;;;;;;;51.47;28.33;;;7.20;99.90;;;;;;4975647;28;20223;-60
2021/03/26 02:50:21;;;;;;;55.13;28.50;;;7.20;99.90;;;;;;4984720;28;20969;-62
2021/03/26 02:52:55;;;;;;;138.50;30.17;;;7.10;99.90;;;;;;4995531;28;20438;-61
2021/03/26 02:55:29;;;;;;;208.53;34.07;;;7.00;99.90;;;;;;4994849;28;20233;-62
2021/03/26 02:58:02;;;;;;;176.23;30.23;;;6.70;99.90;;;;;;4994916;28;20372;-62
2021/03/26 03:00:35;;;;;;;157.20;30.57;;;6.70;99.90;;;;;;4994813;28;20390;-62
2021/03/26 03:03:04;;;;;;;87.33;25.77;;;6.60;99.90;;;;;;4994857;28;20222;-61
2021/03/26 03:05:40;;;;;;;46.53;24.07;;;6.60;99.90;;;;;;5013618;28;20689;-61
2021/03/26 03:08:15;;;;;;;58.77;24.40;;;6.50;99.90;;;;;;4995038;28;20222;-61
2021/03/26 03:10:53;;;;;;;146.67;30.43;;;6.60;99.90;;;;;;4995325;28;20245;-60
2021/03/26 03:13:30;;;;;;;172.63;34.40;;;6.40;99.90;;;;;;4994870;28;20429;-60
2021/03/26 03:16:02;;;;;;;31.53;23.17;;;6.50;99.90;;;;;;4992799;28;20230;-61
2021/03/26 03:18:31;;;;;;;225.00;39.20;;;6.40;99.90;;;;;;4992025;28;20574;-61
2021/03/26 03:21:04;;;;;;;101.87;31.77;;;6.30;99.90;;;;;;4991426;28;20764;-62
2021/03/26 03:23:40;;;;;;;192.23;35.60;;;6.00;99.90;;;;;;4988654;28;20329;-60
2021/03/26 03:26:26;;;;;;;40.70;23.43;;;6.40;99.90;;;;;;4971597;28;20401;-61
2021/03/26 03:29:00;;;;;;;34.03;24.83;;;6.20;99.90;;;;;;4990333;28;21043;-60
2021/03/26 03:31:49;;;;;;;38.77;27.23;;;5.80;99.90;;;;;;5002880;28;20242;-60
2021/03/26 03:34:26;;;;;;;38.67;27.33;;;6.00;99.90;;;;;;5010157;28;20211;-61
2021/03/26 03:37:02;;;;;;;45.87;25.57;;;6.00;99.90;;;;;;4991242;28;20727;-62
2021/03/26 03:39:36;;;;;;;39.87;25.40;;;5.90;99.90;;;;;;4991353;28;20576;-61
2021/03/26 03:42:17;;;;;;;51.90;28.53;;;5.90;99.90;;;;;;4991675;28;20629;-61
2021/03/26 03:44:49;;;;;;;139.27;33.97;;;5.80;99.90;;;;;;4998422;28;20269;-61
2021/03/26 03:47:25;;;;;;;55.67;29.57;;;5.90;99.90;;;;;;4991497;28;20223;-60
2021/03/26 03:50:13;;;;;;;40.07;27.03;;;5.80;99.90;;;;;;4991309;28;20284;-60
2021/03/26 03:52:47;;;;;;;41.57;28.30;;;5.80;99.90;;;;;;4990965;28;20220;-62
2021/03/26 03:55:17;;;;;;;45.47;30.73;;;5.60;99.90;;;;;;4989804;28;20627;-60
2021/03/26 03:58:01;;;;;;;51.93;30.77;;;5.80;99.90;;;;;;5009281;28;20513;-60
2021/03/26 04:00:31;;;;;;;43.93;28.27;;;5.40;99.90;;;;;;4990697;28;20218;-61
2021/03/26 04:03:10;;;;;;;48.20;32.77;;;5.50;99.90;;;;;;4990862;28;20450;-61
2021/03/26 04:05:41;;;;;;;47.97;30.97;;;5.40;99.90;;;;;;4990589;28;20219;-61
2021/03/26 04:08:17;;;;;;;43.93;30.73;;;5.40;99.90;;;;;;4991000;28;20451;-61
2021/03/26 04:10:50;;;;;;;43.63;30.73;;;5.30;99.90;;;;;;4990556;28;20996;-61
2021/03/26 04:13:23;;;;;;;46.77;29.70;;;5.20;99.90;;;;;;4991211;28;20414;-61
2021/03/26 04:15:54;;;;;;;40.27;27.83;;;5.20;99.90;;;;;;4990679;28;20561;-60
2021/03/26 04:18:32;;;;;;;48.70;29.10;;;5.20;99.90;;;;;;4990165;28;20272;-61
2021/03/26 04:21:21;;;;;;;45.20;28.70;;;5.00;99.90;;;;;;4990935;28;20459;-61
2021/03/26 04:24:15;;;;;;;40.77;27.00;;;5.10;99.90;;;;;;5008847;28;20673;-61
2021/03/26 04:27:10;;;;;;;40.67;27.80;;;5.10;99.90;;;;;;4988241;28;20648;-60
2021/03/26 04:29:56;;;;;;;40.63;27.97;;;4.80;99.90;;;;;;4990025;28;20482;-61
2021/03/26 04:32:31;;;;;;;39.10;27.80;;;4.90;99.90;;;;;;4990397;28;20230;-61
2021/03/26 04:34:58;;;;;;;36.47;26.87;;;4.80;99.90;;;;;;4990020;28;20602;-60
2021/03/26 04:37:31;;;;;;;38.17;26.77;;;4.80;99.90;;;;;;4989831;28;20626;-60
2021/03/26 04:40:08;;;;;;;38.47;27.30;;;4.50;99.90;;;;;;4990161;28;20392;-61
2021/03/26 04:42:46;;;;;;;42.20;29.37;;;4.80;99.90;;;;;;4990100;28;20657;-61
2021/03/26 04:45:23;;;;;;;43.43;29.37;;;4.60;99.90;;;;;;5008902;28;20799;-61
2021/03/26 04:48:09;;;;;;;44.53;28.10;;;4.70;99.90;;;;;;4979529;28;20227;-60
2021/03/26 04:51:05;;;;;;;42.47;27.13;;;4.60;99.90;;;;;;4989596;28;20788;-61
2021/03/26 04:54:01;;;;;;;39.57;26.03;;;4.50;99.90;;;;;;5002489;28;20579;-60
2021/03/26 04:56:32;;;;;;;44.50;28.57;;;4.60;99.90;;;;;;4989923;28;20554;-59
2021/03/26 04:59:37;;;;;;;40.23;26.63;;;4.30;99.90;;;;;;4997146;28;20506;-60
2021/03/26 05:02:18;;;;;;;40.97;28.73;;;4.30;99.90;;;;;;4989952;28;20230;-61
2021/03/26 05:04:52;;;;;;;37.93;25.00;;;4.20;99.90;;;;;;4989573;28;20469;-61
2021/03/26 05:07:26;;;;;;;43.57;27.80;;;4.20;99.90;;;;;;5005016;28;20572;-61
2021/03/26 05:09:59;;;;;;;40.70;27.47;;;4.30;99.90;;;;;;4989961;28;20778;-61
2021/03/26 05:13:02;;;;;;;45.87;29.87;;;4.20;99.90;;;;;;4996004;28;20325;-59
2021/03/26 05:15:41;;;;;;;39.93;26.73;;;4.10;99.90;;;;;;4986255;28;20711;-61
2021/03/26 05:18:23;;;;;;;39.97;29.17;;;4.20;99.90;;;;;;4983093;28;20336;-60
2021/03/26 05:20:56;;;;;;;39.23;26.23;;;4.10;99.90;;;;;;4989195;28;20665;-59
2021/03/26 05:23:31;;;;;;;37.10;27.40;;;4.20;99.90;;;;;;5004925;28;20576;-59
2021/03/26 05:26:16;;;;;;;59.73;39.60;;;4.20;99.90;;;;;;5006026;28;20230;-61
2021/03/26 05:28:58;;;;;;;42.03;28.20;;;4.30;99.90;;;;;;4989220;28;20214;-60
2021/03/26 05:31:37;;;;;;;45.47;30.63;;;4.30;99.90;;;;;;4995690;28;20717;-60
2021/03/26 05:34:11;;;;;;;48.13;34.67;;;4.40;99.90;;;;;;4989628;28;20681;-60
2021/03/26 05:36:44;;;;;;;45.47;29.23;;;4.30;99.90;;;;;;4989201;28;20345;-60
2021/03/26 05:39:48;;;;;;;39.53;27.47;;;4.30;99.90;;;;;;5004668;28;20604;-61
2021/03/26 05:42:48;;;;;;;40.00;27.73;;;4.60;99.90;;;;;;4998505;28;20963;-59
2021/03/26 05:45:39;;;;;;;39.53;27.90;;;4.60;99.90;;;;;;5004650;28;20459;-61
2021/03/26 05:48:36;;;;;;;41.10;26.77;;;4.70;99.90;;;;;;5003439;28;20218;-60
2021/03/26 05:51:43;;;;;;;40.07;27.07;;;4.80;99.90;;;;;;4987160;28;21180;-60
2021/03/26 05:54:33;;;;;;;34.13;24.93;;;4.70;99.90;;;;;;4960388;28;20517;-59
2021/03/26 05:57:11;;;;;;;36.33;25.43;;;4.90;99.90;;;;;;5003726;28;20327;-61
2021/03/26 05:59:53;;;;;;;39.23;28.37;;;5.00;99.90;;;;;;4986624;28;20639;-60
2021/03/26 06:03:00;;;;;;;48.13;30.50;;;5.10;99.90;;;;;;5004690;28;20486;-61
2021/03/26 06:06:19;;;;;;;41.03;28.20;;;4.90;99.90;;;;;;5002159;28;20971;-60
2021/03/26 06:09:39;;;;;;;39.57;28.63;;;5.30;99.90;;;;;;5001610;28;20556;-61
2021/03/26 06:13:16;;;;;;;41.57;30.10;;;6.10;99.90;;;;;;4934446;28;20239;-60
2021/03/26 06:16:31;;;;;;;44.57;29.40;;;5.40;99.90;;;;;;5001470;28;20748;-60
2021/03/26 06:20:04;;;;;;;43.60;30.53;;;5.60;99.90;;;;;;4948090;28;20239;-61
2021/03/26 06:23:47;;;;;;;45.73;30.23;;;5.70;99.90;;;;;;5003726;28;20643;-59
2021/03/26 06:26:49;;;;;;;44.57;30.23;;;6.10;99.90;;;;;;4985896;28;20230;-60
2021/03/26 06:29:27;;;;;;;42.60;29.93;;;6.40;99.90;;;;;;5004810;28;20634;-60
2021/03/26 06:32:29;;;;;;;42.83;28.40;;;6.60;99.90;;;;;;4985029;28;20752;-61
2021/03/26 06:35:36;;;;;;;44.30;28.23;;;6.70;99.90;;;;;;4982389;28;20698;-59
2021/03/26 06:38:23;;;;;;;40.33;28.00;;;6.80;99.90;;;;;;5003953;28;20473;-60
2021/03/26 06:41:01;;;;;;;40.90;28.33;;;7.00;99.90;;;;;;5003516;28;20544;-59
2021/03/26 06:43:47;;;;;;;38.83;26.93;;;7.30;99.90;;;;;;5004275;28;20542;-60
2021/03/26 06:46:31;;;;;;;39.53;27.73;;;7.60;99.90;;;;;;5003119;28;20261;-60
2021/03/26 06:49:09;;;;;;;40.50;26.73;;;7.60;99.90;;;;;;5003330;28;20425;-60
2021/03/26 06:52:08;;;;;;;40.73;27.50;;;7.80;99.90;;;;;;5000524;28;20222;-61
2021/03/26 06:55:04;;;;;;;36.23;25.53;;;8.10;99.90;;;;;;4988293;28;20600;-60
2021/03/26 06:58:01;;;;;;;34.73;24.13;;;8.40;99.90;;;;;;5006734;28;20238;-60
2021/03/26 07:00:46;;;;;;;33.47;23.10;;;8.60;99.90;;;;;;5002519;28;20219;-59
2021/03/26 07:03:45;;;;;;;32.20;22.93;;;8.80;99.90;;;;;;4988216;28;20265;-58
2021/03/26 07:06:48;;;;;;;30.67;21.80;;;9.00;99.90;;;;;;5000892;28;20429;-58
2021/03/26 07:09:27;;;;;;;33.40;22.77;;;9.10;99.90;;;;;;5005921;28;20495;-57
2021/03/26 07:12:09;;;;;;;30.20;21.97;;;9.10;99.90;;;;;;5006790;28;20226;-59
2021/03/26 07:14:46;;;;;;;27.90;21.73;;;9.30;99.90;;;;;;5006863;28;20469;-58
2021/03/26 07:17:43;;;;;;;31.30;21.37;;;9.60;99.90;;;;;;5006166;28;20424;-59
2021/03/26 07:20:30;;;;;;;33.20;20.63;;;9.40;99.90;;;;;;5006650;28;20219;-60
2021/03/26 07:23:48;;;;;;;29.20;20.57;;;9.50;99.90;;;;;;5007167;28;20553;-60
2021/03/26 07:26:30;;;;;;;27.47;20.77;;;9.50;99.90;;;;;;5006329;28;20222;-60
2021/03/26 07:29:28;;;;;;;28.13;19.63;;;9.70;99.90;;;;;;4988324;28;20693;-59
2021/03/26 07:32:30;;;;;;;28.07;20.30;;;9.70;99.90;;;;;;5006511;28;20528;-60
2021/03/26 07:35:25;;;;;;;29.20;20.60;;;9.80;99.90;;;;;;5004295;28;21010;-60
2021/03/26 07:38:09;;;;;;;26.33;18.47;;;10.20;99.90;;;;;;5006313;28;20612;-60
2021/03/26 07:40:47;;;;;;;28.07;18.83;;;10.50;99.90;;;;;;5005132;28;20430;-60
2021/03/26 07:43:32;;;;;;;26.23;18.53;;;10.60;99.90;;;;;;4988087;28;20980;-60
2021/03/26 07:46:28;;;;;;;26.33;19.53;;;11.30;99.90;;;;;;5006446;28;20422;-61
2021/03/26 07:49:17;;;;;;;29.93;18.57;;;11.60;99.90;;;;;;4988520;28;20541;-61
2021/03/26 07:51:53;;;;;;;21.97;17.67;;;11.50;99.90;;;;;;5005612;28;20529;-59
2021/03/26 07:54:41;;;;;;;25.97;19.30;;;11.70;99.90;;;;;;5006352;28;20710;-61
2021/03/26 07:57:19;;;;;;;26.57;18.13;;;11.90;99.90;;;;;;5005952;28;20272;-59
2021/03/26 08:00:14;;;;;;;24.97;18.23;;;12.10;99.90;;;;;;5006592;28;20596;-61
2021/03/26 08:02:55;;;;;;;25.80;18.57;;;12.20;99.90;;;;;;5006016;28;20506;-60
2021/03/26 08:05:25;;;;;;;25.83;19.03;;;12.50;99.90;;;;;;5005814;28;21124;-61
2021/03/26 08:08:20;;;;;;;27.20;19.10;;;12.60;99.90;;;;;;5006346;28;20671;-60
2021/03/26 08:10:59;;;;;;;25.13;18.57;;;12.70;99.90;;;;;;5005205;28;20319;-60
2021/03/26 08:14:02;;;;;;;24.90;18.17;;;13.60;99.90;;;;;;5005968;28;21173;-62
2021/03/26 08:16:59;;;;;;;29.20;20.00;;;13.30;99.90;;;;;;5002101;28;20402;-61
2021/03/26 08:19:35;;;;;;;26.60;19.07;;;13.50;99.90;;;;;;4970530;28;20234;-60
2021/03/26 08:22:14;;;;;;;28.33;19.87;;;13.50;99.90;;;;;;4998533;28;20620;-61
2021/03/26 08:25:19;;;;;;;39.23;27.87;;;13.70;99.90;;;;;;5004932;28;20226;-60
2021/03/26 08:28:00;;;;;;;30.53;20.30;;;14.00;99.90;;;;;;4979028;28;20488;-61
2021/03/26 08:30:48;;;;;;;27.30;19.13;;;14.00;99.90;;;;;;4986829;28;20226;-61
2021/03/26 08:33:22;;;;;;;30.87;21.17;;;14.40;99.90;;;;;;5005914;28;20971;-61
2021/03/26 08:36:31;;;;;;;30.20;20.17;;;14.40;99.40;;;;;;5005286;28;20226;-61
2021/03/26 08:39:21;;;;;;;25.07;19.37;;;14.50;98.40;;;;;;4969142;28;20234;-60
2021/03/26 08:41:57;;;;;;;26.73;17.73;;;14.70;98.60;;;;;;4992162;28;20610;-59
2021/03/26 08:44:25;;;;;;;29.23;19.43;;;14.90;97.50;;;;;;5005477;28;20673;-60
2021/03/26 08:46:54;;;;;;;27.67;20.53;;;14.90;96.30;;;;;;5005069;28;20954;-60
2021/03/26 08:49:35;;;;;;;29.87;20.87;;;14.90;95.80;;;;;;5005409;28;20635;-60
2021/03/26 08:52:25;;;;;;;32.23;22.20;;;15.20;96.40;;;;;;5005070;28;20968;-61
2021/03/26 08:55:26;;;;;;;31.58;21.83;;;15.60;95.40;;;;;;5005701;28;20460;-60
2021/03/26 08:58:05;;;;;;;31.02;21.00;;;15.70;94.30;;;;;;4998880;28;20242;-60
2021/03/26 09:00:43;;;;;;;28.13;21.73;;;15.90;91.40;;;;;;5004785;28;20214;-61
2021/03/26 09:03:30;;;;;;;30.20;21.70;;;16.10;91.90;;;;;;5005607;28;20528;-59
2021/03/26 09:06:39;;;;;;;33.15;21.88;;;16.20;90.70;;;;;;5005006;28;20333;-60
2021/03/26 09:09:25;;;;;;;31.10;23.17;;;16.50;87.10;;;;;;4994772;28;20662;-60
2021/03/26 09:12:13;;;;;;;28.88;21.55;;;16.40;87.30;;;;;;5004920;28;20673;-60
2021/03/26 09:15:17;;;;;;;27.50;21.30;;;16.80;86.00;;;;;;5003944;28;20221;-60
2021/03/26 09:17:52;;;;;;;31.52;22.42;;;17.00;83.30;;;;;;5003487;28;21136;-60
2021/03/26 09:20:27;;;;;;;30.35;21.67;;;17.20;77.10;;;;;;5004696;28;20536;-60
2021/03/26 09:23:17;;;;;;;28.80;23.20;;;17.30;74.40;;;;;;5005051;28;20213;-60
2021/03/26 09:25:46;;;;;;;29.80;22.38;;;17.30;73.20;;;;;;4991051;28;20222;-60
2021/03/26 09:28:24;;;;;;;29.60;22.52;;;17.40;71.50;;;;;;5005239;28;20565;-60
2021/03/26 09:31:04;;;;;;;27.17;21.98;;;17.50;71.30;;;;;;5004456;28;20226;-60
2021/03/26 09:33:32;;;;;;;29.98;23.20;;;17.40;67.90;;;;;;5004220;28;20579;-61
2021/03/26 09:36:02;;;;;;;28.60;21.90;;;17.50;70.00;;;;;;5004054;28;20443;-60
2021/03/26 09:38:38;;;;;;;32.13;22.98;;;17.60;68.90;;;;;;5004585;28;20222;-60
2021/03/26 09:41:18;;;;;;;29.15;23.10;;;17.70;66.30;;;;;;5004704;28;20993;-60
2021/03/26 09:43:55;;;;;;;32.08;22.27;;;17.80;64.50;;;;;;5004914;28;20711;-60
2021/03/26 09:46:36;;;;;;;36.58;23.10;;;18.80;63.70;;;;;;5004698;28;20258;-61
2021/03/26 09:49:13;;;;;;;30.38;22.67;;;17.60;64.40;;;;;;5004779;28;20689;-60
2021/03/26 09:51:50;;;;;;;32.22;23.58;;;16.60;63.90;;;;;;5003790;28;20229;-59
2021/03/26 09:54:25;;;;;;;31.27;22.95;;;18.10;62.80;;;;;;5004099;28;20331;-60
2021/03/26 09:57:19;;;;;;;29.27;22.38;;;18.40;61.60;;;;;;5003694;28;20636;-60
2021/03/26 09:59:55;;;;;;;32.97;22.75;;;18.40;59.00;;;;;;4995990;28;20669;-60
2021/03/26 10:02:33;;;;;;;24.60;18.48;;;18.40;58.90;;;;;;5004335;28;20497;-60
2021/03/26 10:05:06;;;;;;;25.60;19.65;;;18.30;59.40;;;;;;5004752;28;20717;-60
2021/03/26 10:07:41;;;;;;;24.00;18.90;;;18.30;58.90;;;;;;5004747;28;20485;-60
2021/03/26 10:13:04;;;;;;;22.38;18.83;;;18.20;57.60;;;;;;5004117;28;20249;-59
2021/03/26 10:15:35;;;;;;;22.75;17.73;;;18.40;58.60;;;;;;5003737;28;20620;-60
2021/03/26 10:18:11;;;;;;;23.77;18.13;;;18.50;58.30;;;;;;5004947;28;20674;-61
2021/03/26 10:20:43;;;;;;;24.85;19.25;;;18.70;57.70;;;;;;5003504;28;20750;-60
2021/03/26 10:23:22;;;;;;;23.90;18.08;;;18.70;57.70;;;;;;5004640;28;20226;-60
2021/03/26 10:25:52;;;;;;;22.00;17.92;;;18.40;56.80;;;;;;5005814;28;20331;-60
2021/03/26 10:28:24;;;;;;;23.33;18.33;;;19.20;56.60;;;;;;5007420;28;20462;-60
2021/03/26 10:30:53;;;;;;;26.88;18.58;;;19.30;55.50;;;;;;5007190;28;20231;-61
2021/03/26 10:33:22;;;;;;;25.45;17.10;;;19.30;54.70;;;;;;5008166;28;20964;-60
2021/03/26 10:35:58;;;;;;;21.75;18.05;;;19.40;55.00;;;;;;5007055;28;20234;-61
2021/03/26 10:38:43;;;;;;;22.73;19.05;;;19.50;55.30;;;;;;5007291;28;20541;-59
2021/03/26 10:41:17;;;;;;;25.42;19.38;;;19.60;55.00;;;;;;5007111;28;20616;-60
2021/03/26 10:43:50;;;;;;;20.67;17.60;;;19.60;54.20;;;;;;5007036;28;20210;-60
2021/03/26 10:46:23;;;;;;;21.85;17.05;;;19.80;54.00;;;;;;5006902;28;20799;-60
2021/03/26 10:48:59;;;;;;;21.33;17.60;;;19.90;53.60;;;;;;5007421;28;20370;-60
2021/03/26 10:51:43;;;;;;;23.95;18.83;;;20.10;53.20;;;;;;5006382;28;20344;-60
2021/03/26 10:54:22;;;;;;;24.80;18.13;;;20.20;52.50;;;;;;5007279;28;20325;-61
2021/03/26 10:56:55;;;;;;;20.05;17.63;;;20.40;52.10;;;;;;5006554;28;20829;-60
2021/03/26 10:59:29;;;;;;;22.38;17.80;;;20.40;50.50;;;;;;5007159;28;20677;-60
2021/03/26 11:02:28;;;;;;;18.88;15.80;;;20.40;51.30;;;;;;5006988;28;20670;-60
2021/03/26 11:05:06;;;;;;;21.63;17.60;;;20.70;52.00;;;;;;5003823;28;20222;-60
2021/03/26 11:07:38;;;;;;;20.25;15.10;;;20.80;50.40;;;;;;5002843;28;20242;-60
2021/03/26 11:10:09;;;;;;;17.92;15.43;;;21.10;50.80;;;;;;5007279;28;20508;-60
2021/03/26 11:12:41;;;;;;;19.77;17.10;;;21.10;49.30;;;;;;5006460;28;20714;-60
2021/03/26 11:15:13;;;;;;;19.17;15.68;;;21.00;48.40;;;;;;5006421;28;20345;-60
2021/03/26 11:17:48;;;;;;;17.80;14.73;;;20.20;49.10;;;;;;5006995;28;20471;-60
2021/03/26 11:20:38;;;;;;;15.77;13.75;;;19.90;50.50;;;;;;5006775;28;20665;-60
2021/03/26 11:23:12;;;;;;;17.13;13.73;;;20.00;50.80;;;;;;5007026;28;20362;-60
2021/03/26 11:25:41;;;;;;;19.52;12.00;;;19.90;50.90;;;;;;5006744;28;20431;-60
2021/03/26 11:28:17;;;;;;;14.02;11.00;;;20.20;50.60;;;;;;5006653;28;21029;-60
2021/03/26 11:30:50;;;;;;;14.23;11.43;;;20.50;49.90;;;;;;5006533;28;20538;-60
2021/03/26 11:33:25;;;;;;;12.88;10.85;;;20.90;49.10;;;;;;5006844;28;20451;-61
2021/03/26 11:35:56;;;;;;;11.35;9.25;;;20.90;47.80;;;;;;5005499;28;20380;-60
2021/03/26 11:38:26;;;;;;;12.90;10.50;;;20.20;46.60;;;;;;5005540;28;20391;-61
2021/03/26 11:41:05;;;;;;;11.85;8.57;;;21.20;47.30;;;;;;5012761;28;20616;-60
2021/03/26 11:43:37;;;;;;;9.55;7.97;;;21.30;45.50;;;;;;5006857;28;20434;-60
2021/03/26 11:46:06;;;;;;;11.68;8.90;;;21.40;42.70;;;;;;5005979;28;20502;-61
2021/03/26 11:48:43;;;;;;;10.10;9.10;;;21.30;43.50;;;;;;5006866;28;21019;-61
2021/03/26 11:51:20;;;;;;;12.48;9.77;;;21.40;43.90;;;;;;5006290;28;20308;-61
2021/03/26 11:53:56;;;;;;;10.15;8.68;;;21.40;42.90;;;;;;5006477;28;20480;-60
2021/03/26 11:56:35;;;;;;;9.75;8.32;;;21.30;42.20;;;;;;5005607;28;20581;-60
2021/03/26 11:59:39;;;;;;;9.80;8.80;;;21.00;42.40;;;;;;5006515;28;20510;-60
2021/03/26 12:02:41;;;;;;;10.77;8.35;;;21.10;43.30;;;;;;5006175;28;20581;-61
2021/03/26 12:05:16;;;;;;;9.68;8.07;;;21.50;43.10;;;;;;5006272;28;20704;-61
2021/03/26 12:07:49;;;;;;;10.48;7.57;;;21.70;43.20;;;;;;4999042;28;20436;-61
2021/03/26 12:10:25;;;;;;;11.90;8.23;;;21.70;43.10;;;;;;5004721;28;20523;-61
2021/03/26 12:13:02;;;;;;;10.55;8.77;;;21.80;41.50;;;;;;5006066;28;20217;-61
2021/03/26 12:15:34;;;;;;;10.73;8.50;;;21.70;42.00;;;;;;5005447;28;20214;-61
2021/03/26 12:18:06;;;;;;;8.93;7.97;;;21.40;42.50;;;;;;5008666;28;20210;-61
2021/03/26 12:20:36;;;;;;;12.30;8.25;;;21.20;42.80;;;;;;5005008;28;20460;-61
2021/03/26 12:23:17;;;;;;;12.68;8.90;;;21.10;42.80;;;;;;5006050;28;21110;-61
2021/03/26 12:25:50;;;;;;;13.02;9.60;;;20.70;41.70;;;;;;5005382;28;20410;-61
2021/03/26 12:28:26;;;;;;;10.18;7.95;;;20.40;42.90;;;;;;5006028;28;21053;-61
2021/03/26 12:30:58;;;;;;;10.07;7.47;;;20.20;43.30;;;;;;5005693;28;20250;-61
2021/03/26 12:33:28;;;;;;;12.32;8.02;;;20.00;43.80;;;;;;5005653;28;20654;-60
2021/03/26 12:36:00;;;;;;;8.75;7.75;;;19.90;44.10;;;;;;5004701;28;20305;-61
2021/03/26 12:38:39;;;;;;;11.05;7.80;;;19.90;45.00;;;;;;5005316;28;20534;-60
2021/03/26 12:41:38;;;;;;;9.25;8.20;;;19.70;44.40;;;;;;5004800;28;20501;-62
2021/03/26 12:44:12;;;;;;;11.30;8.25;;;19.60;45.20;;;;;;4988971;28;20976;-60
2021/03/26 12:46:55;;;;;;;10.48;7.97;;;19.60;46.00;;;;;;5005595;28;20400;-61
2021/03/26 12:49:27;;;;;;;9.32;8.27;;;19.80;46.00;;;;;;5004364;28;20810;-59
2021/03/26 12:52:01;;;;;;;10.85;7.57;;;20.00;45.90;;;;;;5005194;28;20636;-61
2021/03/26 12:54:36;;;;;;;12.65;7.25;;;20.30;44.00;;;;;;4998976;28;20221;-61
2021/03/26 12:57:08;;;;;;;7.75;6.18;;;20.30;43.20;;;;;;5005028;28;20450;-61
2021/03/26 12:59:40;;;;;;;9.90;7.72;;;20.30;43.70;;;;;;5005463;28;20284;-61
2021/03/26 13:02:19;;;;;;;9.63;7.60;;;20.30;43.90;;;;;;5005577;28;20563;-61
2021/03/26 13:04:55;;;;;;;7.22;6.25;;;20.30;43.40;;;;;;5004900;28;20559;-60
2021/03/26 13:07:29;;;;;;;10.70;7.00;;;20.30;42.60;;;;;;5005123;28;20713;-61
2021/03/26 13:10:21;;;;;;;12.25;7.65;;;20.30;42.90;;;;;;5005073;28;20241;-60
2021/03/26 13:12:50;;;;;;;10.75;7.43;;;20.40;42.90;;;;;;4987026;28;20227;-61
2021/03/26 13:15:22;;;;;;;10.65;8.23;;;20.30;43.60;;;;;;5005569;28;20447;-61
2021/03/26 13:17:48;;;;;;;11.00;9.48;;;20.40;43.10;;;;;;5005070;28;20280;-61
2021/03/26 13:20:17;;;;;;;10.10;8.88;;;20.30;42.90;;;;;;5004885;28;20623;-61
2021/03/26 13:22:46;;;;;;;10.68;7.90;;;20.30;43.20;;;;;;5004799;28;20541;-61
2021/03/26 13:25:23;;;;;;;10.38;8.80;;;20.30;42.80;;;;;;5001286;28;20265;-62
2021/03/26 13:28:04;;;;;;;11.10;8.68;;;20.40;43.10;;;;;;5004956;28;20610;-60
2021/03/26 13:30:37;;;;;;;12.73;9.85;;;20.40;43.30;;;;;;5005059;28;20214;-61
2021/03/26 13:33:23;;;;;;;11.40;8.73;;;20.40;44.00;;;;;;5004922;28;20250;-61
2021/03/26 13:35:59;;;;;;;12.25;9.98;;;20.50;43.10;;;;;;5004581;28;20502;-61
2021/03/26 13:39:04;;;;;;;14.45;9.77;;;20.30;43.40;;;;;;5004960;28;20805;-61